sensor_id;sensor_type;location;lat;lon;timestamp;P1;durP1;ratioP1;P2;durP2;ratioP2
35444;SDS011;21562;49.476;6.086;2022-10-17T00:01:18;11.25;;;5.38;;
35444;SDS011;21562;49.476;6.086;2022-10-17T00:03:44;9.52;;;5.43;;
35444;SDS011;21562;49.476;6.086;2022-10-17T00:06:10;6.18;;;5.10;;
35444;SDS011;21562;49.476;6.086;2022-10-17T00:08:38;7.15;;;5.43;;
35444;SDS011;21562;49.476;6.086;2022-10-17T00:11:14;12.20;;;5.78;;
35444;SDS011;21562;49.476;6.086;2022-10-17T00:13:42;9.18;;;5.63;;
35444;SDS011;21562;49.476;6.086;2022-10-17T00:16:08;8.95;;;5.38;;
35444;SDS011;21562;49.476;6.086;2022-10-17T00:18:34;8.95;;;5.40;;
35444;SDS011;21562;49.476;6.086;2022-10-17T00:21:00;14.25;;;5.60;;
35444;SDS011;21562;49.476;6.086;2022-10-17T00:23:25;11.05;;;5.10;;
35444;SDS011;21562;49.476;6.086;2022-10-17T00:26:00;9.30;;;5.63;;
35444;SDS011;21562;49.476;6.086;2022-10-17T00:28:26;13.95;;;7.18;;
35444;SDS011;21562;49.476;6.086;2022-10-17T00:30:59;12.95;;;7.05;;
35444;SDS011;21562;49.476;6.086;2022-10-17T00:36:05;16.95;;;11.20;;
35444;SDS011;21562;49.476;6.086;2022-10-17T00:38:31;19.20;;;11.23;;
35444;SDS011;21562;49.476;6.086;2022-10-17T00:40:57;24.73;;;15.02;;
35444;SDS011;21562;49.476;6.086;2022-10-17T00:43:22;18.58;;;11.90;;
35444;SDS011;21562;49.476;6.086;2022-10-17T00:45:48;16.98;;;9.75;;
35444;SDS011;21562;49.476;6.086;2022-10-17T00:48:14;15.32;;;10.27;;
35444;SDS011;21562;49.476;6.086;2022-10-17T00:50:41;15.88;;;9.57;;
35444;SDS011;21562;49.476;6.086;2022-10-17T00:53:08;13.93;;;10.02;;
35444;SDS011;21562;49.476;6.086;2022-10-17T00:55:43;12.85;;;9.73;;
35444;SDS011;21562;49.476;6.086;2022-10-17T00:58:12;13.88;;;9.15;;
35444;SDS011;21562;49.476;6.086;2022-10-17T01:00:38;17.10;;;9.32;;
35444;SDS011;21562;49.476;6.086;2022-10-17T01:03:05;16.00;;;9.52;;
35444;SDS011;21562;49.476;6.086;2022-10-17T01:05:31;14.00;;;8.35;;
35444;SDS011;21562;49.476;6.086;2022-10-17T01:07:57;14.38;;;7.80;;
35444;SDS011;21562;49.476;6.086;2022-10-17T01:10:26;16.73;;;8.18;;
35444;SDS011;21562;49.476;6.086;2022-10-17T01:13:09;18.58;;;8.88;;
35444;SDS011;21562;49.476;6.086;2022-10-17T01:21:40;23.95;;;9.98;;
35444;SDS011;21562;49.476;6.086;2022-10-17T01:24:44;14.80;;;8.98;;
35444;SDS011;21562;49.476;6.086;2022-10-17T01:30:06;14.77;;;9.65;;
35444;SDS011;21562;49.476;6.086;2022-10-17T01:35:25;14.00;;;9.00;;
35444;SDS011;21562;49.476;6.086;2022-10-17T01:38:09;18.77;;;9.63;;
35444;SDS011;21562;49.476;6.086;2022-10-17T01:46:09;15.75;;;8.98;;
35444;SDS011;21562;49.476;6.086;2022-10-17T01:48:46;18.52;;;8.70;;
35444;SDS011;21562;49.476;6.086;2022-10-17T01:51:15;16.90;;;7.50;;
35444;SDS011;21562;49.476;6.086;2022-10-17T01:53:51;12.82;;;8.75;;
35444;SDS011;21562;49.476;6.086;2022-10-17T01:56:37;15.25;;;8.32;;
35444;SDS011;21562;49.476;6.086;2022-10-17T01:59:12;14.88;;;7.70;;
35444;SDS011;21562;49.476;6.086;2022-10-17T02:01:43;15.50;;;8.68;;
35444;SDS011;21562;49.476;6.086;2022-10-17T02:04:11;13.32;;;7.45;;
35444;SDS011;21562;49.476;6.086;2022-10-17T02:06:36;22.38;;;9.20;;
35444;SDS011;21562;49.476;6.086;2022-10-17T02:25:39;13.27;;;7.63;;
35444;SDS011;21562;49.476;6.086;2022-10-17T02:31:14;17.00;;;7.50;;
35444;SDS011;21562;49.476;6.086;2022-10-17T02:33:49;18.38;;;8.15;;
35444;SDS011;21562;49.476;6.086;2022-10-17T02:36:22;16.13;;;7.78;;
35444;SDS011;21562;49.476;6.086;2022-10-17T02:38:53;15.80;;;7.25;;
35444;SDS011;21562;49.476;6.086;2022-10-17T02:41:20;12.48;;;7.85;;
35444;SDS011;21562;49.476;6.086;2022-10-17T02:43:48;13.55;;;7.50;;
35444;SDS011;21562;49.476;6.086;2022-10-17T02:46:17;14.23;;;7.25;;
35444;SDS011;21562;49.476;6.086;2022-10-17T02:48:49;13.40;;;7.22;;
35444;SDS011;21562;49.476;6.086;2022-10-17T02:54:03;15.13;;;8.15;;
35444;SDS011;21562;49.476;6.086;2022-10-17T02:56:41;18.55;;;7.60;;
35444;SDS011;21562;49.476;6.086;2022-10-17T02:59:13;14.25;;;7.28;;
35444;SDS011;21562;49.476;6.086;2022-10-17T03:01:41;15.32;;;6.78;;
35444;SDS011;21562;49.476;6.086;2022-10-17T03:04:08;12.40;;;7.10;;
35444;SDS011;21562;49.476;6.086;2022-10-17T03:06:36;10.90;;;6.47;;
35444;SDS011;21562;49.476;6.086;2022-10-17T03:09:02;16.58;;;7.57;;
35444;SDS011;21562;49.476;6.086;2022-10-17T03:11:28;11.82;;;6.88;;
35444;SDS011;21562;49.476;6.086;2022-10-17T03:13:54;18.63;;;6.70;;
35444;SDS011;21562;49.476;6.086;2022-10-17T03:16:20;14.65;;;7.22;;
35444;SDS011;21562;49.476;6.086;2022-10-17T03:18:46;9.25;;;6.47;;
35444;SDS011;21562;49.476;6.086;2022-10-17T03:21:11;10.60;;;6.10;;
35444;SDS011;21562;49.476;6.086;2022-10-17T03:23:37;11.95;;;6.18;;
35444;SDS011;21562;49.476;6.086;2022-10-17T03:26:03;10.88;;;6.30;;
35444;SDS011;21562;49.476;6.086;2022-10-17T03:28:32;13.05;;;6.70;;
35444;SDS011;21562;49.476;6.086;2022-10-17T03:30:58;16.73;;;7.70;;
35444;SDS011;21562;49.476;6.086;2022-10-17T03:33:30;13.38;;;6.80;;
35444;SDS011;21562;49.476;6.086;2022-10-17T03:35:55;13.20;;;6.93;;
35444;SDS011;21562;49.476;6.086;2022-10-17T03:38:21;9.05;;;6.68;;
35444;SDS011;21562;49.476;6.086;2022-10-17T03:40:53;9.40;;;6.68;;
35444;SDS011;21562;49.476;6.086;2022-10-17T03:43:19;14.15;;;6.57;;
35444;SDS011;21562;49.476;6.086;2022-10-17T03:45:44;12.80;;;7.03;;
35444;SDS011;21562;49.476;6.086;2022-10-17T03:48:10;12.38;;;6.15;;
35444;SDS011;21562;49.476;6.086;2022-10-17T03:50:36;10.55;;;6.45;;
35444;SDS011;21562;49.476;6.086;2022-10-17T03:53:01;15.05;;;6.43;;
35444;SDS011;21562;49.476;6.086;2022-10-17T03:55:27;9.57;;;5.95;;
35444;SDS011;21562;49.476;6.086;2022-10-17T03:57:52;9.48;;;5.88;;
35444;SDS011;21562;49.476;6.086;2022-10-17T04:00:18;11.13;;;6.20;;
35444;SDS011;21562;49.476;6.086;2022-10-17T04:02:44;9.63;;;5.70;;
35444;SDS011;21562;49.476;6.086;2022-10-17T04:05:09;10.18;;;5.85;;
35444;SDS011;21562;49.476;6.086;2022-10-17T04:07:35;13.05;;;6.07;;
35444;SDS011;21562;49.476;6.086;2022-10-17T04:10:03;11.75;;;5.90;;
35444;SDS011;21562;49.476;6.086;2022-10-17T04:12:30;13.45;;;6.22;;
35444;SDS011;21562;49.476;6.086;2022-10-17T04:14:55;13.45;;;7.00;;
35444;SDS011;21562;49.476;6.086;2022-10-17T04:17:21;14.15;;;6.35;;
35444;SDS011;21562;49.476;6.086;2022-10-17T04:19:47;12.50;;;5.88;;
35444;SDS011;21562;49.476;6.086;2022-10-17T04:22:13;10.20;;;6.13;;
35444;SDS011;21562;49.476;6.086;2022-10-17T04:24:39;8.57;;;6.07;;
35444;SDS011;21562;49.476;6.086;2022-10-17T04:27:04;8.43;;;6.05;;
35444;SDS011;21562;49.476;6.086;2022-10-17T04:29:30;9.57;;;6.00;;
35444;SDS011;21562;49.476;6.086;2022-10-17T04:31:56;11.18;;;6.82;;
35444;SDS011;21562;49.476;6.086;2022-10-17T04:34:21;14.25;;;7.50;;
35444;SDS011;21562;49.476;6.086;2022-10-17T04:36:47;12.35;;;5.88;;
35444;SDS011;21562;49.476;6.086;2022-10-17T04:39:12;12.63;;;6.35;;
35444;SDS011;21562;49.476;6.086;2022-10-17T04:41:38;12.38;;;6.55;;
35444;SDS011;21562;49.476;6.086;2022-10-17T04:44:04;15.73;;;7.03;;
35444;SDS011;21562;49.476;6.086;2022-10-17T04:46:29;9.30;;;6.00;;
35444;SDS011;21562;49.476;6.086;2022-10-17T04:48:58;9.52;;;6.20;;
35444;SDS011;21562;49.476;6.086;2022-10-17T04:51:24;12.23;;;6.30;;
35444;SDS011;21562;49.476;6.086;2022-10-17T04:53:49;10.90;;;6.00;;
35444;SDS011;21562;49.476;6.086;2022-10-17T04:56:17;7.57;;;5.30;;
35444;SDS011;21562;49.476;6.086;2022-10-17T04:58:44;7.32;;;5.97;;
35444;SDS011;21562;49.476;6.086;2022-10-17T05:01:11;11.07;;;5.72;;
35444;SDS011;21562;49.476;6.086;2022-10-17T05:03:38;9.13;;;5.32;;
35444;SDS011;21562;49.476;6.086;2022-10-17T05:06:05;7.43;;;5.60;;
35444;SDS011;21562;49.476;6.086;2022-10-17T05:08:32;11.82;;;6.38;;
35444;SDS011;21562;49.476;6.086;2022-10-17T05:10:57;9.00;;;5.38;;
35444;SDS011;21562;49.476;6.086;2022-10-17T05:13:23;7.55;;;5.65;;
35444;SDS011;21562;49.476;6.086;2022-10-17T05:15:49;15.95;;;5.35;;
35444;SDS011;21562;49.476;6.086;2022-10-17T05:18:14;8.45;;;5.82;;
35444;SDS011;21562;49.476;6.086;2022-10-17T05:20:40;11.07;;;6.28;;
35444;SDS011;21562;49.476;6.086;2022-10-17T05:23:06;13.35;;;6.38;;
35444;SDS011;21562;49.476;6.086;2022-10-17T05:25:31;11.48;;;5.50;;
35444;SDS011;21562;49.476;6.086;2022-10-17T05:27:57;12.27;;;5.90;;
35444;SDS011;21562;49.476;6.086;2022-10-17T05:30:22;10.75;;;5.85;;
35444;SDS011;21562;49.476;6.086;2022-10-17T05:32:51;8.27;;;5.50;;
35444;SDS011;21562;49.476;6.086;2022-10-17T05:35:19;12.75;;;5.57;;
35444;SDS011;21562;49.476;6.086;2022-10-17T05:37:46;11.65;;;6.40;;
35444;SDS011;21562;49.476;6.086;2022-10-17T05:40:12;13.02;;;5.20;;
35444;SDS011;21562;49.476;6.086;2022-10-17T05:42:37;11.63;;;5.43;;
35444;SDS011;21562;49.476;6.086;2022-10-17T05:45:03;7.50;;;4.97;;
35444;SDS011;21562;49.476;6.086;2022-10-17T05:47:29;7.78;;;5.57;;
35444;SDS011;21562;49.476;6.086;2022-10-17T05:49:55;9.27;;;5.78;;
35444;SDS011;21562;49.476;6.086;2022-10-17T05:52:21;13.57;;;7.00;;
35444;SDS011;21562;49.476;6.086;2022-10-17T05:54:46;10.80;;;6.13;;
35444;SDS011;21562;49.476;6.086;2022-10-17T05:57:12;13.82;;;5.63;;
35444;SDS011;21562;49.476;6.086;2022-10-17T05:59:38;10.15;;;6.05;;
35444;SDS011;21562;49.476;6.086;2022-10-17T06:02:03;14.25;;;5.70;;
35444;SDS011;21562;49.476;6.086;2022-10-17T06:04:29;12.38;;;5.70;;
35444;SDS011;21562;49.476;6.086;2022-10-17T06:06:55;12.77;;;6.15;;
35444;SDS011;21562;49.476;6.086;2022-10-17T06:09:21;9.85;;;6.63;;
35444;SDS011;21562;49.476;6.086;2022-10-17T06:11:47;9.18;;;5.80;;
35444;SDS011;21562;49.476;6.086;2022-10-17T06:14:13;12.77;;;5.78;;
35444;SDS011;21562;49.476;6.086;2022-10-17T06:16:38;8.75;;;5.53;;
35444;SDS011;21562;49.476;6.086;2022-10-17T06:19:04;9.65;;;6.18;;
35444;SDS011;21562;49.476;6.086;2022-10-17T06:21:30;13.90;;;7.72;;
35444;SDS011;21562;49.476;6.086;2022-10-17T06:24:00;9.95;;;6.50;;
35444;SDS011;21562;49.476;6.086;2022-10-17T06:26:25;13.07;;;6.20;;
35444;SDS011;21562;49.476;6.086;2022-10-17T06:28:52;11.35;;;6.75;;
35444;SDS011;21562;49.476;6.086;2022-10-17T06:31:18;7.40;;;5.80;;
35444;SDS011;21562;49.476;6.086;2022-10-17T06:33:44;7.90;;;5.95;;
35444;SDS011;21562;49.476;6.086;2022-10-17T06:36:11;12.57;;;5.93;;
35444;SDS011;21562;49.476;6.086;2022-10-17T06:38:38;11.38;;;6.32;;
35444;SDS011;21562;49.476;6.086;2022-10-17T06:41:08;10.15;;;6.28;;
35444;SDS011;21562;49.476;6.086;2022-10-17T06:43:37;11.73;;;6.53;;
35444;SDS011;21562;49.476;6.086;2022-10-17T06:46:03;14.35;;;7.75;;
35444;SDS011;21562;49.476;6.086;2022-10-17T06:48:30;13.13;;;4.60;;
35444;SDS011;21562;49.476;6.086;2022-10-17T06:51:03;10.52;;;6.60;;
35444;SDS011;21562;49.476;6.086;2022-10-17T06:53:31;13.73;;;6.60;;
35444;SDS011;21562;49.476;6.086;2022-10-17T06:55:58;8.50;;;5.68;;
35444;SDS011;21562;49.476;6.086;2022-10-17T06:58:28;9.77;;;6.20;;
35444;SDS011;21562;49.476;6.086;2022-10-17T07:00:58;9.45;;;6.32;;
35444;SDS011;21562;49.476;6.086;2022-10-17T07:03:29;18.17;;;6.32;;
35444;SDS011;21562;49.476;6.086;2022-10-17T07:05:55;12.40;;;5.82;;
35444;SDS011;21562;49.476;6.086;2022-10-17T07:08:21;11.60;;;6.10;;
35444;SDS011;21562;49.476;6.086;2022-10-17T07:10:46;13.95;;;7.90;;
35444;SDS011;21562;49.476;6.086;2022-10-17T07:13:12;14.75;;;8.70;;
35444;SDS011;21562;49.476;6.086;2022-10-17T07:15:38;15.05;;;8.23;;
35444;SDS011;21562;49.476;6.086;2022-10-17T07:18:04;13.70;;;6.78;;
35444;SDS011;21562;49.476;6.086;2022-10-17T07:20:30;12.07;;;7.30;;
35444;SDS011;21562;49.476;6.086;2022-10-17T07:22:56;9.07;;;6.13;;
35444;SDS011;21562;49.476;6.086;2022-10-17T07:25:22;14.45;;;6.80;;
35444;SDS011;21562;49.476;6.086;2022-10-17T07:27:48;12.52;;;6.22;;
35444;SDS011;21562;49.476;6.086;2022-10-17T07:30:14;15.07;;;7.07;;
35444;SDS011;21562;49.476;6.086;2022-10-17T07:32:41;11.43;;;6.38;;
35444;SDS011;21562;49.476;6.086;2022-10-17T07:35:07;12.48;;;5.97;;
35444;SDS011;21562;49.476;6.086;2022-10-17T07:37:34;10.15;;;4.07;;
35444;SDS011;21562;49.476;6.086;2022-10-17T07:40:00;17.60;;;5.60;;
35444;SDS011;21562;49.476;6.086;2022-10-17T07:42:26;13.75;;;5.70;;
35444;SDS011;21562;49.476;6.086;2022-10-17T07:44:52;7.60;;;5.95;;
35444;SDS011;21562;49.476;6.086;2022-10-17T07:47:18;10.98;;;5.45;;
35444;SDS011;21562;49.476;6.086;2022-10-17T07:49:44;10.95;;;4.60;;
35444;SDS011;21562;49.476;6.086;2022-10-17T07:52:13;9.48;;;4.20;;
35444;SDS011;21562;49.476;6.086;2022-10-17T07:54:40;8.45;;;4.78;;
35444;SDS011;21562;49.476;6.086;2022-10-17T07:57:06;8.90;;;5.28;;
35444;SDS011;21562;49.476;6.086;2022-10-17T07:59:32;10.50;;;4.85;;
35444;SDS011;21562;49.476;6.086;2022-10-17T08:01:59;10.43;;;5.28;;
35444;SDS011;21562;49.476;6.086;2022-10-17T08:04:25;12.10;;;5.03;;
35444;SDS011;21562;49.476;6.086;2022-10-17T08:06:51;10.05;;;4.95;;
35444;SDS011;21562;49.476;6.086;2022-10-17T08:09:17;7.22;;;4.07;;
35444;SDS011;21562;49.476;6.086;2022-10-17T08:11:43;13.30;;;5.20;;
35444;SDS011;21562;49.476;6.086;2022-10-17T08:14:09;10.13;;;4.78;;
35444;SDS011;21562;49.476;6.086;2022-10-17T08:16:35;9.20;;;4.50;;
35444;SDS011;21562;49.476;6.086;2022-10-17T08:19:01;8.70;;;4.63;;
35444;SDS011;21562;49.476;6.086;2022-10-17T08:21:27;7.15;;;4.30;;
35444;SDS011;21562;49.476;6.086;2022-10-17T08:23:53;8.45;;;5.03;;
35444;SDS011;21562;49.476;6.086;2022-10-17T08:26:19;11.60;;;4.38;;
35444;SDS011;21562;49.476;6.086;2022-10-17T08:28:45;5.03;;;3.88;;
35444;SDS011;21562;49.476;6.086;2022-10-17T08:31:12;7.78;;;4.25;;
35444;SDS011;21562;49.476;6.086;2022-10-17T08:33:43;9.90;;;4.00;;
35444;SDS011;21562;49.476;6.086;2022-10-17T08:36:09;11.25;;;3.97;;
35444;SDS011;21562;49.476;6.086;2022-10-17T08:38:37;11.73;;;4.10;;
35444;SDS011;21562;49.476;6.086;2022-10-17T08:41:05;8.68;;;4.10;;
35444;SDS011;21562;49.476;6.086;2022-10-17T08:43:43;11.00;;;3.53;;
35444;SDS011;21562;49.476;6.086;2022-10-17T08:48:38;10.20;;;3.58;;
35444;SDS011;21562;49.476;6.086;2022-10-17T08:51:50;12.35;;;4.05;;
35444;SDS011;21562;49.476;6.086;2022-10-17T08:54:08;6.75;;;3.78;;
35444;SDS011;21562;49.476;6.086;2022-10-17T08:56:42;8.80;;;3.90;;
35444;SDS011;21562;49.476;6.086;2022-10-17T08:59:16;6.38;;;3.42;;
35444;SDS011;21562;49.476;6.086;2022-10-17T09:01:56;7.43;;;3.67;;
35444;SDS011;21562;49.476;6.086;2022-10-17T09:18:34;4.68;;;2.85;;
35444;SDS011;21562;49.476;6.086;2022-10-17T09:23:58;5.07;;;3.10;;
35444;SDS011;21562;49.476;6.086;2022-10-17T09:26:27;9.25;;;3.35;;
35444;SDS011;21562;49.476;6.086;2022-10-17T09:28:54;12.90;;;3.90;;
35444;SDS011;21562;49.476;6.086;2022-10-17T09:31:29;14.50;;;3.65;;
35444;SDS011;21562;49.476;6.086;2022-10-17T09:34:00;7.20;;;3.10;;
35444;SDS011;21562;49.476;6.086;2022-10-17T09:36:31;7.55;;;3.45;;
35444;SDS011;21562;49.476;6.086;2022-10-17T09:38:59;10.48;;;3.28;;
35444;SDS011;21562;49.476;6.086;2022-10-17T09:42:01;8.40;;;3.60;;
35444;SDS011;21562;49.476;6.086;2022-10-17T09:44:29;9.43;;;3.45;;
35444;SDS011;21562;49.476;6.086;2022-10-17T09:49:54;8.57;;;3.22;;
35444;SDS011;21562;49.476;6.086;2022-10-17T09:52:38;12.23;;;3.13;;
35444;SDS011;21562;49.476;6.086;2022-10-17T09:55:32;9.55;;;2.83;;
35444;SDS011;21562;49.476;6.086;2022-10-17T10:00:33;7.88;;;3.10;;
35444;SDS011;21562;49.476;6.086;2022-10-17T10:05:42;6.05;;;2.90;;
35444;SDS011;21562;49.476;6.086;2022-10-17T10:08:28;14.63;;;2.75;;
35444;SDS011;21562;49.476;6.086;2022-10-17T10:10:57;5.55;;;2.63;;
35444;SDS011;21562;49.476;6.086;2022-10-17T10:13:29;13.45;;;3.60;;
35444;SDS011;21562;49.476;6.086;2022-10-17T10:16:11;6.25;;;2.78;;
35444;SDS011;21562;49.476;6.086;2022-10-17T10:18:56;7.00;;;2.83;;
35444;SDS011;21562;49.476;6.086;2022-10-17T10:21:23;12.90;;;3.20;;
35444;SDS011;21562;49.476;6.086;2022-10-17T10:26:43;10.85;;;2.97;;
35444;SDS011;21562;49.476;6.086;2022-10-17T10:29:30;11.65;;;2.75;;
35444;SDS011;21562;49.476;6.086;2022-10-17T10:34:49;11.45;;;3.28;;
35444;SDS011;21562;49.476;6.086;2022-10-17T10:37:22;15.60;;;3.00;;
35444;SDS011;21562;49.476;6.086;2022-10-17T10:39:52;8.57;;;3.45;;
35444;SDS011;21562;49.476;6.086;2022-10-17T10:42:23;6.60;;;2.45;;
35444;SDS011;21562;49.476;6.086;2022-10-17T10:44:51;9.63;;;3.00;;
35444;SDS011;21562;49.476;6.086;2022-10-17T10:49:46;11.18;;;3.15;;
35444;SDS011;21562;49.476;6.086;2022-10-17T10:53:02;8.20;;;2.80;;
35444;SDS011;21562;49.476;6.086;2022-10-17T10:55:20;7.03;;;2.70;;
35444;SDS011;21562;49.476;6.086;2022-10-17T10:57:53;9.30;;;2.92;;
35444;SDS011;21562;49.476;6.086;2022-10-17T11:00:24;6.30;;;2.70;;
35444;SDS011;21562;49.476;6.086;2022-10-17T11:05:44;11.80;;;3.00;;
35444;SDS011;21562;49.476;6.086;2022-10-17T11:08:22;7.72;;;2.65;;
35444;SDS011;21562;49.476;6.086;2022-10-17T11:13:57;12.00;;;3.05;;
35444;SDS011;21562;49.476;6.086;2022-10-17T11:17:31;11.65;;;3.00;;
35444;SDS011;21562;49.476;6.086;2022-10-17T11:22:27;8.13;;;3.00;;
35444;SDS011;21562;49.476;6.086;2022-10-17T11:27:38;9.55;;;2.53;;
35444;SDS011;21562;49.476;6.086;2022-10-17T11:30:04;11.60;;;2.90;;
35444;SDS011;21562;49.476;6.086;2022-10-17T11:35:03;8.13;;;2.35;;
35444;SDS011;21562;49.476;6.086;2022-10-17T11:38:03;8.23;;;2.57;;
35444;SDS011;21562;49.476;6.086;2022-10-17T11:40:34;8.55;;;2.10;;
35444;SDS011;21562;49.476;6.086;2022-10-17T11:43:08;13.45;;;3.33;;
35444;SDS011;21562;49.476;6.086;2022-10-17T11:45:39;8.77;;;2.13;;
35444;SDS011;21562;49.476;6.086;2022-10-17T11:48:11;6.93;;;2.60;;
35444;SDS011;21562;49.476;6.086;2022-10-17T11:50:45;13.07;;;2.90;;
35444;SDS011;21562;49.476;6.086;2022-10-17T11:53:18;6.28;;;2.65;;
35444;SDS011;21562;49.476;6.086;2022-10-17T11:55:46;7.50;;;2.85;;
35444;SDS011;21562;49.476;6.086;2022-10-17T12:09:26;7.60;;;2.22;;
35444;SDS011;21562;49.476;6.086;2022-10-17T12:12:05;14.43;;;2.83;;
35444;SDS011;21562;49.476;6.086;2022-10-17T12:17:03;9.63;;;2.75;;
35444;SDS011;21562;49.476;6.086;2022-10-17T12:19:44;9.27;;;1.70;;
35444;SDS011;21562;49.476;6.086;2022-10-17T12:22:17;7.82;;;2.38;;
35444;SDS011;21562;49.476;6.086;2022-10-17T12:24:51;13.43;;;2.75;;
35444;SDS011;21562;49.476;6.086;2022-10-17T12:27:41;11.55;;;3.33;;
35444;SDS011;21562;49.476;6.086;2022-10-17T12:35:46;8.18;;;2.28;;
35444;SDS011;21562;49.476;6.086;2022-10-17T12:43:31;8.85;;;3.03;;
35444;SDS011;21562;49.476;6.086;2022-10-17T12:46:07;7.50;;;3.10;;
35444;SDS011;21562;49.476;6.086;2022-10-17T12:53:41;11.27;;;2.72;;
35444;SDS011;21562;49.476;6.086;2022-10-17T12:56:38;8.70;;;2.20;;
35444;SDS011;21562;49.476;6.086;2022-10-17T12:59:27;6.15;;;2.03;;
35444;SDS011;21562;49.476;6.086;2022-10-17T13:01:58;7.07;;;2.13;;
35444;SDS011;21562;49.476;6.086;2022-10-17T13:04:25;8.80;;;2.67;;
35444;SDS011;21562;49.476;6.086;2022-10-17T13:06:53;8.48;;;2.78;;
35444;SDS011;21562;49.476;6.086;2022-10-17T13:09:26;8.15;;;2.60;;
35444;SDS011;21562;49.476;6.086;2022-10-17T13:11:56;11.75;;;2.85;;
35444;SDS011;21562;49.476;6.086;2022-10-17T13:14:25;5.78;;;2.63;;
35444;SDS011;21562;49.476;6.086;2022-10-17T13:16:53;11.85;;;2.58;;
35444;SDS011;21562;49.476;6.086;2022-10-17T13:19:23;7.05;;;2.78;;
35444;SDS011;21562;49.476;6.086;2022-10-17T13:21:54;15.10;;;2.67;;
35444;SDS011;21562;49.476;6.086;2022-10-17T13:24:29;6.63;;;2.63;;
35444;SDS011;21562;49.476;6.086;2022-10-17T13:26:58;9.40;;;2.50;;
35444;SDS011;21562;49.476;6.086;2022-10-17T13:29:24;6.75;;;2.58;;
35444;SDS011;21562;49.476;6.086;2022-10-17T13:31:53;7.80;;;2.70;;
35444;SDS011;21562;49.476;6.086;2022-10-17T13:34:24;7.18;;;2.08;;
35444;SDS011;21562;49.476;6.086;2022-10-17T13:37:00;11.73;;;2.92;;
35444;SDS011;21562;49.476;6.086;2022-10-17T13:39:28;10.32;;;2.50;;
35444;SDS011;21562;49.476;6.086;2022-10-17T13:42:00;9.25;;;3.50;;
35444;SDS011;21562;49.476;6.086;2022-10-17T13:44:27;7.32;;;2.53;;
35444;SDS011;21562;49.476;6.086;2022-10-17T13:46:57;9.95;;;2.53;;
35444;SDS011;21562;49.476;6.086;2022-10-17T13:49:38;9.73;;;2.20;;
35444;SDS011;21562;49.476;6.086;2022-10-17T13:52:06;9.30;;;2.65;;
35444;SDS011;21562;49.476;6.086;2022-10-17T13:54:42;11.30;;;2.63;;
35444;SDS011;21562;49.476;6.086;2022-10-17T13:59:46;4.30;;;2.20;;
35444;SDS011;21562;49.476;6.086;2022-10-17T14:02:16;9.75;;;2.60;;
35444;SDS011;21562;49.476;6.086;2022-10-17T14:10:04;10.55;;;3.25;;
35444;SDS011;21562;49.476;6.086;2022-10-17T14:12:31;13.57;;;3.13;;
35444;SDS011;21562;49.476;6.086;2022-10-17T14:14:57;6.90;;;2.28;;
35444;SDS011;21562;49.476;6.086;2022-10-17T14:17:26;4.65;;;2.58;;
35444;SDS011;21562;49.476;6.086;2022-10-17T14:20:00;9.88;;;2.83;;
35444;SDS011;21562;49.476;6.086;2022-10-17T14:22:28;15.00;;;3.35;;
35444;SDS011;21562;49.476;6.086;2022-10-17T14:24:57;7.75;;;2.72;;
35444;SDS011;21562;49.476;6.086;2022-10-17T14:30:27;8.50;;;3.17;;
35444;SDS011;21562;49.476;6.086;2022-10-17T14:32:53;11.50;;;2.60;;
35444;SDS011;21562;49.476;6.086;2022-10-17T14:35:21;6.15;;;2.40;;
35444;SDS011;21562;49.476;6.086;2022-10-17T14:37:48;14.73;;;3.00;;
35444;SDS011;21562;49.476;6.086;2022-10-17T14:40:20;10.73;;;3.15;;
35444;SDS011;21562;49.476;6.086;2022-10-17T14:42:50;8.02;;;3.28;;
35444;SDS011;21562;49.476;6.086;2022-10-17T14:45:21;7.75;;;3.85;;
35444;SDS011;21562;49.476;6.086;2022-10-17T14:47:53;9.48;;;3.33;;
35444;SDS011;21562;49.476;6.086;2022-10-17T14:50:22;13.23;;;3.15;;
35444;SDS011;21562;49.476;6.086;2022-10-17T14:53:00;11.10;;;2.97;;
35444;SDS011;21562;49.476;6.086;2022-10-17T14:55:29;9.98;;;2.88;;
35444;SDS011;21562;49.476;6.086;2022-10-17T14:57:56;8.98;;;2.88;;
35444;SDS011;21562;49.476;6.086;2022-10-17T15:00:22;11.23;;;3.00;;
35444;SDS011;21562;49.476;6.086;2022-10-17T15:02:48;11.77;;;2.75;;
35444;SDS011;21562;49.476;6.086;2022-10-17T15:05:16;10.40;;;3.25;;
35444;SDS011;21562;49.476;6.086;2022-10-17T15:07:42;17.38;;;3.15;;
35444;SDS011;21562;49.476;6.086;2022-10-17T15:12:55;6.00;;;3.00;;
35444;SDS011;21562;49.476;6.086;2022-10-17T15:15:21;7.95;;;2.95;;
35444;SDS011;21562;49.476;6.086;2022-10-17T15:17:47;7.97;;;3.10;;
35444;SDS011;21562;49.476;6.086;2022-10-17T15:20:13;7.75;;;3.40;;
35444;SDS011;21562;49.476;6.086;2022-10-17T15:22:41;7.45;;;2.90;;
35444;SDS011;21562;49.476;6.086;2022-10-17T15:25:07;13.70;;;3.67;;
35444;SDS011;21562;49.476;6.086;2022-10-17T15:27:32;14.93;;;3.13;;
35444;SDS011;21562;49.476;6.086;2022-10-17T15:29:58;13.18;;;2.90;;
35444;SDS011;21562;49.476;6.086;2022-10-17T15:32:24;6.38;;;2.38;;
35444;SDS011;21562;49.476;6.086;2022-10-17T15:34:49;9.15;;;2.97;;
35444;SDS011;21562;49.476;6.086;2022-10-17T15:37:24;10.57;;;2.85;;
35444;SDS011;21562;49.476;6.086;2022-10-17T15:39:53;8.40;;;2.47;;
35444;SDS011;21562;49.476;6.086;2022-10-17T15:42:25;14.50;;;3.03;;
35444;SDS011;21562;49.476;6.086;2022-10-17T15:44:52;10.98;;;2.50;;
35444;SDS011;21562;49.476;6.086;2022-10-17T15:47:28;10.38;;;3.20;;
35444;SDS011;21562;49.476;6.086;2022-10-17T15:49:57;10.10;;;2.85;;
35444;SDS011;21562;49.476;6.086;2022-10-17T15:52:23;11.75;;;2.80;;
35444;SDS011;21562;49.476;6.086;2022-10-17T15:54:50;8.20;;;2.70;;
35444;SDS011;21562;49.476;6.086;2022-10-17T15:57:19;7.75;;;2.65;;
35444;SDS011;21562;49.476;6.086;2022-10-17T15:59:50;13.25;;;2.60;;
35444;SDS011;21562;49.476;6.086;2022-10-17T16:02:18;16.48;;;3.20;;
35444;SDS011;21562;49.476;6.086;2022-10-17T16:04:45;11.75;;;2.80;;
35444;SDS011;21562;49.476;6.086;2022-10-17T16:07:12;10.20;;;2.80;;
35444;SDS011;21562;49.476;6.086;2022-10-17T16:09:38;7.28;;;3.13;;
35444;SDS011;21562;49.476;6.086;2022-10-17T16:12:04;10.60;;;2.70;;
35444;SDS011;21562;49.476;6.086;2022-10-17T16:14:34;11.27;;;3.35;;
35444;SDS011;21562;49.476;6.086;2022-10-17T16:17:00;11.77;;;2.42;;
35444;SDS011;21562;49.476;6.086;2022-10-17T16:19:26;13.52;;;3.40;;
35444;SDS011;21562;49.476;6.086;2022-10-17T16:21:54;15.02;;;2.75;;
35444;SDS011;21562;49.476;6.086;2022-10-17T16:24:21;10.32;;;3.20;;
35444;SDS011;21562;49.476;6.086;2022-10-17T16:26:48;10.35;;;3.30;;
35444;SDS011;21562;49.476;6.086;2022-10-17T16:29:14;8.02;;;2.63;;
35444;SDS011;21562;49.476;6.086;2022-10-17T16:31:41;6.68;;;2.75;;
35444;SDS011;21562;49.476;6.086;2022-10-17T16:34:08;9.20;;;3.33;;
35444;SDS011;21562;49.476;6.086;2022-10-17T16:36:37;11.25;;;2.75;;
35444;SDS011;21562;49.476;6.086;2022-10-17T16:39:03;11.63;;;2.80;;
35444;SDS011;21562;49.476;6.086;2022-10-17T16:41:33;10.27;;;3.00;;
35444;SDS011;21562;49.476;6.086;2022-10-17T16:44:02;9.48;;;2.90;;
35444;SDS011;21562;49.476;6.086;2022-10-17T16:46:30;12.23;;;3.17;;
35444;SDS011;21562;49.476;6.086;2022-10-17T16:48:57;8.35;;;2.65;;
35444;SDS011;21562;49.476;6.086;2022-10-17T16:51:23;11.77;;;3.50;;
35444;SDS011;21562;49.476;6.086;2022-10-17T16:53:50;8.63;;;3.92;;
35444;SDS011;21562;49.476;6.086;2022-10-17T16:56:19;10.60;;;4.18;;
35444;SDS011;21562;49.476;6.086;2022-10-17T16:58:47;7.68;;;3.65;;
35444;SDS011;21562;49.476;6.086;2022-10-17T17:01:14;6.90;;;3.72;;
35444;SDS011;21562;49.476;6.086;2022-10-17T17:03:41;11.82;;;4.20;;
35444;SDS011;21562;49.476;6.086;2022-10-17T17:06:09;8.25;;;3.47;;
35444;SDS011;21562;49.476;6.086;2022-10-17T17:08:38;14.68;;;4.80;;